createdAt,value
2018-02-01T00:00:39.681Z,988.5
2018-02-01T00:01:42.107Z,988.5
2018-02-01T00:02:44.850Z,988.7
2018-02-01T00:03:47.262Z,988.7
2018-02-01T00:04:49.688Z,988.7
2018-02-01T00:05:52.116Z,988.7
2018-02-01T00:06:54.538Z,988.6
2018-02-01T00:07:57.243Z,988.6
2018-02-01T00:08:59.672Z,988.6
2018-02-01T00:10:02.361Z,988.6
2018-02-01T00:11:04.793Z,988.7
2018-02-01T00:12:07.491Z,988.6
2018-02-01T00:13:09.918Z,988.6
2018-02-01T00:14:12.346Z,988.6
2018-02-01T00:15:14.763Z,988.5
2018-02-01T00:16:17.185Z,988.6
2018-02-01T00:17:19.630Z,988.5
2018-02-01T00:18:22.333Z,988.6
2018-02-01T00:19:24.770Z,988.6
2018-02-01T00:20:27.481Z,988.7
2018-02-01T00:21:29.904Z,988.7
2018-02-01T00:22:32.329Z,988.8
2018-02-01T00:23:34.754Z,988.8
2018-02-01T00:24:37.170Z,988.7
2018-02-01T00:25:39.604Z,988.8
2018-02-01T00:26:42.025Z,988.8
2018-02-01T00:27:44.465Z,988.8
2018-02-01T00:28:46.893Z,988.8
2018-02-01T00:29:49.318Z,988.8
2018-02-01T00:30:51.742Z,988.8
2018-02-01T00:31:54.165Z,988.8
2018-02-01T00:32:56.587Z,988.8
2018-02-01T00:33:59.006Z,988.7
2018-02-01T00:35:01.417Z,988.7
2018-02-01T00:36:03.851Z,988.8
2018-02-01T00:37:06.561Z,988.7
2018-02-01T00:38:08.986Z,988.8
2018-02-01T00:39:11.720Z,988.7
2018-02-01T00:40:14.144Z,988.8
2018-02-01T00:41:16.570Z,988.7
2018-02-01T00:42:19.002Z,988.7
2018-02-01T00:43:21.422Z,988.6
2018-02-01T00:44:23.855Z,988.7
2018-02-01T00:45:26.273Z,988.7
2018-02-01T00:46:28.703Z,988.7
2018-02-01T00:47:31.134Z,988.5
2018-02-01T00:48:33.557Z,988.6
2018-02-01T00:49:35.973Z,988.5
2018-02-01T00:50:38.407Z,988.5
2018-02-01T00:51:40.834Z,988.5
2018-02-01T00:52:43.252Z,988.5
2018-02-01T00:53:45.679Z,988.5
2018-02-01T00:54:48.104Z,988.5
2018-02-01T00:55:50.811Z,988.5
2018-02-01T00:56:53.235Z,988.6
2018-02-01T00:57:55.661Z,988.5
2018-02-01T00:58:58.086Z,988.6
2018-02-01T01:00:00.518Z,988.6
2018-02-01T01:01:02.947Z,988.7
2018-02-01T01:02:05.361Z,988.7
2018-02-01T01:03:07.793Z,988.7
2018-02-01T01:04:10.221Z,988.7
2018-02-01T01:05:12.927Z,988.7
2018-02-01T01:06:15.355Z,988.7
2018-02-01T01:07:17.783Z,988.7
2018-02-01T01:08:20.206Z,988.7
2018-02-01T01:09:22.639Z,988.7
2018-02-01T01:10:25.363Z,988.7
2018-02-01T01:11:27.789Z,988.7
2018-02-01T01:12:30.501Z,988.7
2018-02-01T01:13:32.931Z,988.7
2018-02-01T01:14:35.354Z,988.7
2018-02-01T01:15:37.790Z,988.6
2018-02-01T01:16:40.217Z,988.7
2018-02-01T01:17:42.640Z,988.7
2018-02-01T01:18:45.071Z,988.7
2018-02-01T01:19:47.496Z,988.7
2018-02-01T01:20:49.920Z,988.8
2018-02-01T01:21:52.350Z,988.7
2018-02-01T01:22:54.764Z,988.7
2018-02-01T01:23:57.200Z,988.7
2018-02-01T01:24:59.631Z,988.7
2018-02-01T01:26:02.341Z,988.8
2018-02-01T01:27:04.766Z,988.8
2018-02-01T01:28:07.191Z,988.7
2018-02-01T01:29:09.615Z,988.8
2018-02-01T01:30:12.029Z,988.8
2018-02-01T01:31:14.453Z,988.8
2018-02-01T01:32:16.880Z,988.8
2018-02-01T01:33:19.305Z,988.7
2018-02-01T01:34:21.737Z,988.7
2018-02-01T01:35:24.154Z,988.7
2018-02-01T01:36:26.579Z,988.7
2018-02-01T01:37:29.015Z,988.7
2018-02-01T01:38:31.730Z,988.8
2018-02-01T01:39:34.159Z,988.8
2018-02-01T01:40:36.571Z,988.8
2018-02-01T01:41:38.999Z,988.9
2018-02-01T01:42:41.429Z,988.8
2018-02-01T01:43:43.854Z,988.8
2018-02-01T01:44:46.564Z,988.9
2018-02-01T01:45:48.990Z,988.8
2018-02-01T01:46:51.404Z,988.8
2018-02-01T01:47:53.844Z,988.8
2018-02-01T01:48:56.268Z,988.8
2018-02-01T01:49:58.685Z,988.7
2018-02-01T01:51:01.114Z,988.7
2018-02-01T01:52:03.839Z,988.7
2018-02-01T01:53:06.264Z,988.6
2018-02-01T01:54:08.695Z,988.6
2018-02-01T01:55:11.401Z,988.6
2018-02-01T01:56:13.828Z,988.6
2018-02-01T01:57:16.522Z,988.7
2018-02-01T01:58:18.943Z,988.7
2018-02-01T01:59:21.387Z,988.6
2018-02-01T02:00:23.809Z,988.7
2018-02-01T02:01:26.237Z,988.7
2018-02-01T02:02:28.658Z,988.6
2018-02-01T02:03:31.089Z,988.6
2018-02-01T02:04:33.520Z,988.6
2018-02-01T02:05:35.945Z,988.6
2018-02-01T02:06:38.360Z,988.6
2018-02-01T02:07:40.779Z,988.6
2018-02-01T02:08:43.211Z,988.5
2018-02-01T02:09:45.630Z,988.5
2018-02-01T02:10:48.059Z,988.5
2018-02-01T02:11:50.479Z,988.5
2018-02-01T02:12:53.188Z,988.6
2018-02-01T02:13:55.625Z,988.5
2018-02-01T02:14:58.072Z,988.5
2018-02-01T02:16:00.466Z,988.6
2018-02-01T02:17:02.892Z,988.6
2018-02-01T02:18:05.319Z,988.6
2018-02-01T02:19:07.745Z,988.5
2018-02-01T02:20:10.174Z,988.6
2018-02-01T02:21:12.577Z,988.6
2018-02-01T02:22:15.003Z,988.5
2018-02-01T02:23:17.436Z,988.5
2018-02-01T02:24:19.857Z,988.5
2018-02-01T02:25:22.267Z,988.6
2018-02-01T02:26:24.697Z,988.5
2018-02-01T02:27:27.399Z,988.5
2018-02-01T02:28:29.826Z,988.5
2018-02-01T02:29:32.249Z,988.5
2018-02-01T02:30:34.687Z,988.5
2018-02-01T02:31:37.406Z,988.5
2018-02-01T02:32:39.841Z,988.5
2018-02-01T02:33:42.259Z,988.5
2018-02-01T02:34:44.966Z,988.5
2018-02-01T02:35:47.392Z,988.5
2018-02-01T02:36:49.813Z,988.5
2018-02-01T02:37:52.526Z,988.5
2018-02-01T02:38:54.962Z,988.5
2018-02-01T02:39:57.662Z,988.5
2018-02-01T02:41:00.087Z,988.4
2018-02-01T02:42:02.789Z,988.4
2018-02-01T02:43:05.209Z,988.5
2018-02-01T02:44:07.627Z,988.5
2018-02-01T02:45:10.637Z,988.5
2018-02-01T02:46:13.046Z,988.4
2018-02-01T02:47:15.486Z,988.5
2018-02-01T02:48:17.912Z,988.4
2018-02-01T02:49:20.335Z,988.4
2018-02-01T02:50:23.357Z,988.4
2018-02-01T02:51:25.778Z,988.4
2018-02-01T02:52:28.498Z,988.5
2018-02-01T02:53:31.202Z,988.4
2018-02-01T02:54:34.200Z,988.4
2018-02-01T02:55:36.630Z,988.5
2018-02-01T02:56:39.042Z,988.4
2018-02-01T02:57:41.471Z,988.4
2018-02-01T02:58:43.892Z,988.4
2018-02-01T02:59:46.316Z,988.4
2018-02-01T03:00:48.745Z,988.4
2018-02-01T03:01:51.164Z,988.3
2018-02-01T03:02:53.581Z,988.4
2018-02-01T03:03:56.302Z,988.4
2018-02-01T03:04:58.722Z,988.3
2018-02-01T03:06:01.141Z,988.4
2018-02-01T03:07:03.564Z,988.4
2018-02-01T03:08:06.275Z,988.4
2018-02-01T03:09:08.704Z,988.3
2018-02-01T03:10:11.122Z,988.4
2018-02-01T03:11:13.536Z,988.4
2018-02-01T03:12:15.963Z,988.4
2018-02-01T03:13:18.397Z,988.4
2018-02-01T03:14:20.828Z,988.5
2018-02-01T03:15:23.249Z,988.5
2018-02-01T03:16:25.673Z,988.5
2018-02-01T03:17:28.101Z,988.5
2018-02-01T03:18:30.530Z,988.5
2018-02-01T03:19:32.953Z,988.5
2018-02-01T03:20:35.366Z,988.5
2018-02-01T03:21:38.123Z,988.5
2018-02-01T03:22:40.795Z,988.6
2018-02-01T03:23:43.523Z,988.6
2018-02-01T03:24:45.953Z,988.6
2018-02-01T03:25:48.960Z,988.6
2018-02-01T03:26:51.393Z,988.6
2018-02-01T03:27:53.802Z,988.7
2018-02-01T03:28:56.224Z,988.6
2018-02-01T03:29:58.671Z,988.7
2018-02-01T03:31:01.090Z,988.6
2018-02-01T03:32:03.516Z,988.7
2018-02-01T03:33:06.226Z,988.6
2018-02-01T03:34:08.646Z,988.6
2018-02-01T03:35:11.079Z,988.6
2018-02-01T03:36:13.503Z,988.5
2018-02-01T03:37:16.254Z,988.5
2018-02-01T03:38:18.689Z,988.5
2018-02-01T03:39:21.101Z,988.5
2018-02-01T03:40:23.813Z,988.5
2018-02-01T03:41:26.250Z,988.5
2018-02-01T03:42:28.663Z,988.5
2018-02-01T03:43:31.091Z,988.5
2018-02-01T03:44:33.522Z,988.5
2018-02-01T03:45:35.937Z,988.5
2018-02-01T03:46:38.374Z,988.5
2018-02-01T03:47:41.073Z,988.5
2018-02-01T03:48:43.494Z,988.6
2018-02-01T03:49:45.918Z,988.5
2018-02-01T03:50:48.614Z,988.6
2018-02-01T03:51:51.038Z,988.6
2018-02-01T03:52:53.449Z,988.6
2018-02-01T03:53:55.892Z,988.7
2018-02-01T03:54:58.322Z,988.7
2018-02-01T03:56:00.743Z,988.7
2018-02-01T03:57:03.449Z,988.7
2018-02-01T03:58:05.868Z,988.7
2018-02-01T03:59:08.572Z,988.7
2018-02-01T04:00:11.000Z,988.7
2018-02-01T04:01:13.416Z,988.7
2018-02-01T04:02:15.830Z,988.7
2018-02-01T04:03:18.261Z,988.7
2018-02-01T04:04:20.688Z,988.7
2018-02-01T04:05:23.110Z,988.7
2018-02-01T04:06:25.545Z,988.8
2018-02-01T04:07:28.252Z,988.8
2018-02-01T04:08:30.962Z,988.7
2018-02-01T04:09:33.393Z,988.7
2018-02-01T04:10:35.808Z,988.7
2018-02-01T04:11:38.241Z,988.7
2018-02-01T04:12:40.664Z,988.7
2018-02-01T04:13:43.093Z,988.7
2018-02-01T04:14:45.504Z,988.7
2018-02-01T04:15:47.926Z,988.8
2018-02-01T04:16:50.354Z,988.7
2018-02-01T04:17:53.054Z,988.8
2018-02-01T04:18:55.478Z,988.8
2018-02-01T04:19:57.896Z,988.8
2018-02-01T04:21:00.312Z,988.8
2018-02-01T04:22:02.749Z,988.8
2018-02-01T04:23:05.171Z,988.7
2018-02-01T04:24:07.602Z,988.8
2018-02-01T04:25:10.594Z,988.8
2018-02-01T04:26:13.024Z,988.8
2018-02-01T04:27:15.438Z,988.7
2018-02-01T04:28:17.859Z,988.8
2018-02-01T04:29:20.281Z,988.7
2018-02-01T04:30:22.989Z,988.7
2018-02-01T04:31:25.411Z,988.8
2018-02-01T04:32:27.832Z,988.8
2018-02-01T04:33:30.535Z,988.8
2018-02-01T04:34:32.966Z,988.8
2018-02-01T04:35:35.409Z,988.8
2018-02-01T04:36:37.838Z,988.8
2018-02-01T04:37:40.266Z,988.8
2018-02-01T04:38:42.963Z,988.8
2018-02-01T04:39:45.387Z,988.8
2018-02-01T04:40:48.108Z,988.8
2018-02-01T04:41:50.525Z,988.8
2018-02-01T04:42:52.949Z,988.8
2018-02-01T04:43:55.367Z,988.8
2018-02-01T04:44:57.780Z,988.9
2018-02-01T04:46:00.217Z,988.9
2018-02-01T04:47:02.643Z,988.9
2018-02-01T04:48:05.068Z,989
2018-02-01T04:49:07.492Z,989
2018-02-01T04:50:09.919Z,989
2018-02-01T04:51:12.344Z,989
2018-02-01T04:52:14.776Z,989
2018-02-01T04:53:17.193Z,989
2018-02-01T04:54:19.618Z,989
2018-02-01T04:55:22.093Z,989
2018-02-01T04:56:24.513Z,989
2018-02-01T04:57:26.930Z,989
2018-02-01T04:58:29.364Z,988.9
2018-02-01T04:59:31.771Z,989
2018-02-01T05:00:34.213Z,988.9
2018-02-01T05:01:36.688Z,988.9
2018-02-01T05:02:39.062Z,989
2018-02-01T05:03:41.487Z,988.9
2018-02-01T05:04:43.904Z,989
2018-02-01T05:05:46.324Z,989
2018-02-01T05:06:48.747Z,989
2018-02-01T05:07:51.454Z,989
2018-02-01T05:08:53.892Z,989
2018-02-01T05:09:56.322Z,989
2018-02-01T05:10:58.753Z,989
2018-02-01T05:12:01.728Z,989
2018-02-01T05:13:04.159Z,989
2018-02-01T05:14:06.867Z,989
2018-02-01T05:15:09.295Z,989
2018-02-01T05:16:11.711Z,989
2018-02-01T05:17:14.141Z,988.9
2018-02-01T05:18:16.560Z,988.9
2018-02-01T05:19:18.997Z,989
2018-02-01T05:20:21.419Z,989
2018-02-01T05:21:23.837Z,989
2018-02-01T05:22:26.261Z,989
2018-02-01T05:23:28.689Z,989
2018-02-01T05:24:31.101Z,989.1
2018-02-01T05:25:33.513Z,989
2018-02-01T05:26:35.942Z,989
2018-02-01T05:27:38.365Z,989.1
2018-02-01T05:28:40.787Z,989.1
2018-02-01T05:29:43.496Z,989.1
2018-02-01T05:30:45.923Z,989.1
2018-02-01T05:31:48.354Z,989.1
2018-02-01T05:32:50.789Z,989
2018-02-01T05:33:53.476Z,989.1
2018-02-01T05:34:55.900Z,989.1
2018-02-01T05:35:58.325Z,989.1
2018-02-01T05:37:00.747Z,989.1
2018-02-01T05:38:03.165Z,989.2
2018-02-01T05:39:05.743Z,989.2
2018-02-01T05:40:08.167Z,989.1
2018-02-01T05:41:10.590Z,989.1
2018-02-01T05:42:13.020Z,989.2
2018-02-01T05:43:15.428Z,989.1
2018-02-01T05:44:18.711Z,989.1
2018-02-01T05:45:21.134Z,989.1
2018-02-01T05:46:23.558Z,989.1
2018-02-01T05:47:25.982Z,989.2
2018-02-01T05:48:28.395Z,989.2
2018-02-01T05:49:31.098Z,989.2
2018-02-01T05:50:33.529Z,989.2
2018-02-01T05:51:35.949Z,989.2
2018-02-01T05:52:38.362Z,989.2
2018-02-01T05:53:40.787Z,989.3
2018-02-01T05:54:43.208Z,989.3
2018-02-01T05:55:45.630Z,989.3
2018-02-01T05:56:48.057Z,989.3
2018-02-01T05:57:50.478Z,989.3
2018-02-01T05:58:52.899Z,989.3
2018-02-01T05:59:55.332Z,989.3
2018-02-01T06:00:58.039Z,989.3
2018-02-01T06:02:00.467Z,989.3
2018-02-01T06:03:03.198Z,989.3
2018-02-01T06:04:05.950Z,989.4
2018-02-01T06:05:08.381Z,989.3
2018-02-01T06:06:10.808Z,989.3
2018-02-01T06:07:13.785Z,989.4
2018-02-01T06:08:16.208Z,989.3
2018-02-01T06:09:18.650Z,989.4
2018-02-01T06:10:21.066Z,989.4
2018-02-01T06:11:23.496Z,989.3
2018-02-01T06:12:25.921Z,989.4
2018-02-01T06:13:28.352Z,989.4
2018-02-01T06:14:30.782Z,989.4
2018-02-01T06:15:33.489Z,989.4
2018-02-01T06:16:35.901Z,989.4
2018-02-01T06:17:38.600Z,989.4
2018-02-01T06:18:41.028Z,989.5
2018-02-01T06:19:43.728Z,989.5
2018-02-01T06:20:46.146Z,989.4
2018-02-01T06:21:48.576Z,989.4
2018-02-01T06:22:51.002Z,989.4
2018-02-01T06:23:53.415Z,989.4
2018-02-01T06:24:55.848Z,989.4
2018-02-01T06:25:58.272Z,989.3
2018-02-01T06:27:00.970Z,989.3
2018-02-01T06:28:03.398Z,989.3
2018-02-01T06:29:06.100Z,989.4
2018-02-01T06:30:08.820Z,989.4
2018-02-01T06:31:11.537Z,989.4
2018-02-01T06:32:13.955Z,989.5
2018-02-01T06:33:16.373Z,989.4
2018-02-01T06:34:18.805Z,989.4
2018-02-01T06:35:21.224Z,989.4
2018-02-01T06:36:23.652Z,989.4
2018-02-01T06:37:26.069Z,989.4
2018-02-01T06:38:28.492Z,989.4
2018-02-01T06:39:30.915Z,989.4
2018-02-01T06:40:33.342Z,989.4
2018-02-01T06:41:35.782Z,989.4
2018-02-01T06:42:38.468Z,989.4
2018-02-01T06:43:40.898Z,989.5
2018-02-01T06:44:43.323Z,989.5
2018-02-01T06:45:46.345Z,989.5
2018-02-01T06:46:48.767Z,989.5
2018-02-01T06:47:51.185Z,989.5
2018-02-01T06:48:53.886Z,989.5
2018-02-01T06:49:56.319Z,989.5
2018-02-01T06:50:58.739Z,989.5
2018-02-01T06:52:01.162Z,989.5
2018-02-01T06:53:03.586Z,989.5
2018-02-01T06:54:06.012Z,989.5
2018-02-01T06:55:08.440Z,989.5
2018-02-01T06:56:11.157Z,989.5
2018-02-01T06:57:13.580Z,989.5
2018-02-01T06:58:16.012Z,989.5
2018-02-01T06:59:18.434Z,989.5
2018-02-01T07:00:20.852Z,989.5
2018-02-01T07:01:23.274Z,989.4
2018-02-01T07:02:25.983Z,989.5
2018-02-01T07:03:28.402Z,989.5
2018-02-01T07:04:30.826Z,989.5
2018-02-01T07:05:33.240Z,989.5
2018-02-01T07:06:35.672Z,989.5
2018-02-01T07:07:38.092Z,989.5
2018-02-01T07:08:40.508Z,989.6
2018-02-01T07:09:42.930Z,989.6
2018-02-01T07:10:45.351Z,989.6
2018-02-01T07:11:47.768Z,989.5
2018-02-01T07:12:50.199Z,989.5
2018-02-01T07:13:52.626Z,989.5
2018-02-01T07:14:55.049Z,989.5
2018-02-01T07:15:57.484Z,989.5
2018-02-01T07:16:59.906Z,989.6
2018-02-01T07:18:02.330Z,989.6
2018-02-01T07:19:04.751Z,989.6
2018-02-01T07:20:07.170Z,989.6
2018-02-01T07:21:09.593Z,989.6
2018-02-01T07:22:12.023Z,989.6
2018-02-01T07:23:14.731Z,989.6
2018-02-01T07:24:17.161Z,989.6
2018-02-01T07:25:19.858Z,989.6
2018-02-01T07:26:22.567Z,989.6
2018-02-01T07:27:24.988Z,989.6
2018-02-01T07:28:27.416Z,989.5
2018-02-01T07:29:29.835Z,989.6
2018-02-01T07:30:32.253Z,989.6
2018-02-01T07:31:34.676Z,989.6
2018-02-01T07:32:37.111Z,989.6
2018-02-01T07:33:39.532Z,989.7
2018-02-01T07:34:41.956Z,989.8
2018-02-01T07:35:44.375Z,989.8
2018-02-01T07:36:46.802Z,989.7
2018-02-01T07:37:49.504Z,989.7
2018-02-01T07:38:52.212Z,989.7
2018-02-01T07:39:54.635Z,989.7
2018-02-01T07:40:57.089Z,989.7
2018-02-01T07:41:59.507Z,989.7
2018-02-01T07:43:02.213Z,989.7
2018-02-01T07:44:04.642Z,989.7
2018-02-01T07:45:07.058Z,989.7
2018-02-01T07:46:09.478Z,989.7
2018-02-01T07:47:11.913Z,989.7
2018-02-01T07:48:14.337Z,989.7
2018-02-01T07:49:16.752Z,989.7
2018-02-01T07:50:19.176Z,989.8
2018-02-01T07:51:21.606Z,989.8
2018-02-01T07:52:24.047Z,989.7
2018-02-01T07:53:27.013Z,989.7
2018-02-01T07:54:29.729Z,989.7
2018-02-01T07:55:32.161Z,989.7
2018-02-01T07:56:34.571Z,989.8
2018-02-01T07:57:37.008Z,989.7
2018-02-01T07:58:39.425Z,989.7
2018-02-01T07:59:42.138Z,989.7
2018-02-01T08:00:44.626Z,989.7
2018-02-01T08:01:48.166Z,989.8
2018-02-01T08:02:50.591Z,989.7
2018-02-01T08:03:53.313Z,989.7
2018-02-01T08:04:55.721Z,989.7
2018-02-01T08:05:58.148Z,989.7
2018-02-01T08:07:00.564Z,989.8
2018-02-01T08:08:03.000Z,989.8
2018-02-01T08:09:05.422Z,989.8
2018-02-01T08:10:07.852Z,989.8
2018-02-01T08:11:10.266Z,989.9
2018-02-01T08:12:12.705Z,989.8
2018-02-01T08:13:15.123Z,989.8
2018-02-01T08:14:17.550Z,989.8
2018-02-01T08:15:19.976Z,989.9
2018-02-01T08:16:22.402Z,989.8
2018-02-01T08:17:24.819Z,989.8
2018-02-01T08:18:27.256Z,989.8
2018-02-01T08:19:29.682Z,989.8
2018-02-01T08:20:32.106Z,989.8
2018-02-01T08:21:34.549Z,989.9
2018-02-01T08:22:37.297Z,989.8
2018-02-01T08:23:39.723Z,989.8
2018-02-01T08:24:42.142Z,989.9
2018-02-01T08:25:44.565Z,989.8
2018-02-01T08:26:47.029Z,989.8
2018-02-01T08:27:49.409Z,989.8
2018-02-01T08:28:51.839Z,989.9
2018-02-01T08:29:54.245Z,989.8
2018-02-01T08:30:56.680Z,989.9
2018-02-01T08:31:59.109Z,989.9
2018-02-01T08:33:01.530Z,989.8
2018-02-01T08:34:03.961Z,989.9
2018-02-01T08:35:06.384Z,989.9
2018-02-01T08:36:09.098Z,989.8
2018-02-01T08:37:11.537Z,989.8
2018-02-01T08:38:14.256Z,989.8
2018-02-01T08:39:16.682Z,989.8
2018-02-01T08:40:19.115Z,989.8
2018-02-01T08:41:21.523Z,989.8
2018-02-01T08:42:23.947Z,989.8
2018-02-01T08:43:26.371Z,989.9
2018-02-01T08:44:28.785Z,989.7
2018-02-01T08:45:31.493Z,989.8
2018-02-01T08:46:33.922Z,989.7
2018-02-01T08:47:36.347Z,989.8
2018-02-01T08:48:38.767Z,989.7
2018-02-01T08:49:41.190Z,989.8
2018-02-01T08:50:43.900Z,989.8
2018-02-01T08:51:46.318Z,989.8
2018-02-01T08:52:48.741Z,989.8
2018-02-01T08:53:51.157Z,989.8
2018-02-01T08:54:54.193Z,989.8
2018-02-01T08:55:56.632Z,989.8
2018-02-01T08:56:59.051Z,989.8
2018-02-01T08:58:01.481Z,989.9
2018-02-01T08:59:03.906Z,989.9
2018-02-01T09:00:06.335Z,989.8
2018-02-01T09:01:08.766Z,989.9
2018-02-01T09:02:11.194Z,989.8
2018-02-01T09:03:13.605Z,989.9
2018-02-01T09:04:16.041Z,990
2018-02-01T09:05:18.465Z,989.9
2018-02-01T09:06:20.889Z,989.9
2018-02-01T09:07:23.321Z,989.9
2018-02-01T09:08:25.737Z,990
2018-02-01T09:09:28.158Z,989.9
2018-02-01T09:10:30.595Z,989.9
2018-02-01T09:11:33.047Z,989.9
2018-02-01T09:12:35.423Z,990
2018-02-01T09:13:38.140Z,989.9
2018-02-01T09:14:40.565Z,989.9
2018-02-01T09:15:42.993Z,989.9
2018-02-01T09:16:45.422Z,989.9
2018-02-01T09:17:47.838Z,990
2018-02-01T09:18:50.546Z,990
2018-02-01T09:19:52.972Z,989.9
2018-02-01T09:20:55.388Z,990
2018-02-01T09:21:57.808Z,990
2018-02-01T09:23:00.238Z,990
2018-02-01T09:24:02.656Z,990
2018-02-01T09:25:05.084Z,990.1
2018-02-01T09:26:07.792Z,990
2018-02-01T09:27:10.500Z,990
2018-02-01T09:28:13.211Z,990
2018-02-01T09:29:15.647Z,990.1
2018-02-01T09:30:18.629Z,990.1
2018-02-01T09:31:21.052Z,990
2018-02-01T09:32:23.481Z,990.1
2018-02-01T09:33:25.901Z,990.1
2018-02-01T09:34:28.326Z,990.1
2018-02-01T09:35:30.763Z,990
2018-02-01T09:36:33.181Z,990
2018-02-01T09:37:35.607Z,990.1
2018-02-01T09:38:38.034Z,990.1
2018-02-01T09:39:40.452Z,990.2
2018-02-01T09:40:43.169Z,990.1
2018-02-01T09:41:45.599Z,990.2
2018-02-01T09:42:48.014Z,990.2
2018-02-01T09:43:50.454Z,990.2
2018-02-01T09:44:52.877Z,990.1
2018-02-01T09:45:55.302Z,990.2
2018-02-01T09:46:58.015Z,990.2
2018-02-01T09:48:00.435Z,990.1
2018-02-01T09:49:03.427Z,990
2018-02-01T09:50:05.853Z,990
2018-02-01T09:51:08.278Z,990.1
2018-02-01T09:52:11.037Z,990.1
2018-02-01T09:53:13.395Z,990
2018-02-01T09:54:15.832Z,990
2018-02-01T09:55:18.256Z,990.1
2018-02-01T09:56:20.685Z,990.1
2018-02-01T09:57:23.111Z,990
2018-02-01T09:58:25.525Z,990.1
2018-02-01T09:59:27.947Z,990.3
2018-02-01T10:00:30.380Z,990.1
2018-02-01T10:01:32.795Z,990.2
2018-02-01T10:02:35.223Z,990.2
2018-02-01T10:03:37.647Z,990.1
2018-02-01T10:04:40.072Z,990.2
2018-02-01T10:05:42.788Z,990.2
2018-02-01T10:06:45.212Z,990.2
2018-02-01T10:07:47.633Z,990.1
2018-02-01T10:08:50.060Z,990.2
2018-02-01T10:09:52.482Z,990.2
2018-02-01T10:10:54.911Z,990.2
2018-02-01T10:11:57.332Z,990.2
2018-02-01T10:12:59.756Z,990.2
2018-02-01T10:14:02.182Z,990.2
2018-02-01T10:15:04.609Z,990.1
2018-02-01T10:16:07.030Z,990.2
2018-02-01T10:17:09.450Z,990.3
2018-02-01T10:18:11.867Z,990.2
2018-02-01T10:19:14.594Z,990.1
2018-02-01T10:20:17.017Z,990.2
2018-02-01T10:21:19.445Z,990.2
2018-02-01T10:22:21.872Z,990.2
2018-02-01T10:23:24.306Z,990.2
2018-02-01T10:24:26.729Z,990.1
2018-02-01T10:25:29.155Z,990.2
2018-02-01T10:26:31.572Z,990.2
2018-02-01T10:27:33.993Z,990.2
2018-02-01T10:28:36.425Z,990.2
2018-02-01T10:29:38.851Z,990.3
2018-02-01T10:30:41.276Z,990.2
2018-02-01T10:31:43.991Z,990.2
2018-02-01T10:32:46.415Z,990.2
2018-02-01T10:33:48.852Z,990.3
2018-02-01T10:34:51.272Z,990.2
2018-02-01T10:35:53.694Z,990.2
2018-02-01T10:36:56.118Z,990.2
2018-02-01T10:37:58.548Z,990.2
2018-02-01T10:39:00.975Z,990.2
2018-02-01T10:40:03.411Z,990.1
2018-02-01T10:41:05.820Z,990.2
2018-02-01T10:42:08.247Z,990.2
2018-02-01T10:43:10.705Z,990.2
2018-02-01T10:44:13.106Z,990.1
2018-02-01T10:45:15.534Z,990.1
2018-02-01T10:46:18.244Z,990.3
2018-02-01T10:47:20.674Z,990.1
2018-02-01T10:48:23.379Z,990.2
2018-02-01T10:49:25.799Z,990.1
2018-02-01T10:50:28.242Z,990.2
2018-02-01T10:51:30.671Z,990.2
2018-02-01T10:52:33.097Z,990.2
2018-02-01T10:53:35.525Z,990.2
2018-02-01T10:54:37.948Z,990.2
2018-02-01T10:55:40.376Z,990.2
2018-02-01T10:56:42.802Z,990.3
2018-02-01T10:57:45.216Z,990.2
2018-02-01T10:58:47.637Z,990.3
2018-02-01T10:59:50.358Z,990.2
2018-02-01T11:00:52.783Z,990.1
2018-02-01T11:01:55.209Z,990.2
2018-02-01T11:02:57.642Z,990.2
2018-02-01T11:04:00.084Z,990.2
2018-02-01T11:05:02.796Z,990.2
2018-02-01T11:06:05.508Z,990.2
2018-02-01T11:07:08.219Z,990.2
2018-02-01T11:08:10.651Z,990.3
2018-02-01T11:09:13.084Z,990.2
2018-02-01T11:10:15.505Z,990.2
2018-02-01T11:11:18.509Z,990.2
2018-02-01T11:12:20.937Z,990.3
2018-02-01T11:13:23.362Z,990.2
2018-02-01T11:14:25.791Z,990.2
2018-02-01T11:15:28.223Z,990.2
2018-02-01T11:16:30.645Z,990.3
2018-02-01T11:17:33.078Z,990.2
2018-02-01T11:18:35.501Z,990.3
2018-02-01T11:19:37.931Z,990.2
2018-02-01T11:20:40.362Z,990.3
2018-02-01T11:21:42.783Z,990.3
2018-02-01T11:22:45.221Z,990.3
2018-02-01T11:23:47.922Z,990.2
2018-02-01T11:24:50.354Z,990.3
2018-02-01T11:25:52.776Z,990.3
2018-02-01T11:26:55.205Z,990.3
2018-02-01T11:27:57.635Z,990.3
2018-02-01T11:29:00.065Z,990.2
2018-02-01T11:30:02.492Z,990.3
2018-02-01T11:31:04.926Z,990.2
2018-02-01T11:32:07.347Z,990.3
2018-02-01T11:33:09.787Z,990.3
2018-02-01T11:34:12.221Z,990.2
2018-02-01T11:35:14.640Z,990.3
2018-02-01T11:36:17.067Z,990.2
2018-02-01T11:37:19.499Z,990.2
2018-02-01T11:38:21.919Z,990.2
2018-02-01T11:39:24.346Z,990.2
2018-02-01T11:40:26.764Z,990.3
2018-02-01T11:41:29.194Z,990.1
2018-02-01T11:42:31.641Z,990.2
2018-02-01T11:43:34.060Z,990.2
2018-02-01T11:44:36.489Z,990.2
2018-02-01T11:45:38.917Z,990.2
2018-02-01T11:46:41.637Z,990.2
2018-02-01T11:47:44.052Z,990.3
2018-02-01T11:48:46.764Z,990.2
2018-02-01T11:49:49.198Z,990.2
2018-02-01T11:50:51.620Z,990.3
2018-02-01T11:51:54.059Z,990.2
2018-02-01T11:52:56.481Z,990.2
2018-02-01T11:53:58.902Z,990.3
2018-02-01T11:55:01.345Z,990.1
2018-02-01T11:56:03.762Z,990.2
2018-02-01T11:57:06.193Z,990.2
2018-02-01T11:58:08.621Z,990.2
2018-02-01T11:59:11.051Z,990.2
2018-02-01T12:00:13.480Z,990.1
2018-02-01T12:01:15.908Z,990.2
2018-02-01T12:02:18.325Z,990.2
2018-02-01T12:03:20.761Z,990.2
2018-02-01T12:04:23.187Z,990.2
2018-02-01T12:05:25.904Z,990.2
2018-02-01T12:06:28.323Z,990.2
2018-02-01T12:07:30.742Z,990.2
2018-02-01T12:08:33.176Z,990.1
2018-02-01T12:09:35.609Z,990.2
2018-02-01T12:10:38.028Z,990.1
2018-02-01T12:11:40.466Z,990.1
2018-02-01T12:12:42.893Z,990.2
2018-02-01T12:13:45.330Z,990.1
2018-02-01T12:14:47.760Z,989.9
2018-02-01T12:15:50.172Z,990.1
2018-02-01T12:16:52.887Z,990.1
2018-02-01T12:17:55.311Z,990.1
2018-02-01T12:18:57.742Z,990.1
2018-02-01T12:20:00.161Z,990.2
2018-02-01T12:21:02.602Z,990
2018-02-01T12:22:05.030Z,990.1
2018-02-01T12:23:07.446Z,990.1
2018-02-01T12:24:09.881Z,990.1
2018-02-01T12:25:12.305Z,990
2018-02-01T12:26:14.725Z,990
2018-02-01T12:27:17.155Z,990.1
2018-02-01T12:28:19.573Z,990.2
2018-02-01T12:29:21.996Z,990.1
2018-02-01T12:30:24.435Z,990
2018-02-01T12:31:27.147Z,990
2018-02-01T12:32:29.574Z,990.1
2018-02-01T12:33:32.000Z,990.2
2018-02-01T12:34:34.420Z,990.1
2018-02-01T12:35:36.854Z,990.1
2018-02-01T12:36:39.273Z,990
2018-02-01T12:37:41.697Z,990.1
2018-02-01T12:38:44.408Z,990.1
2018-02-01T12:39:46.830Z,990
2018-02-01T12:40:49.251Z,990
2018-02-01T12:41:51.686Z,990.1
2018-02-01T12:42:54.106Z,990.2
2018-02-01T12:43:56.540Z,990.1
2018-02-01T12:44:58.966Z,990.2
2018-02-01T12:46:01.387Z,990.1
2018-02-01T12:47:04.104Z,990.1
2018-02-01T12:48:06.526Z,990.1
2018-02-01T12:49:08.947Z,990
2018-02-01T12:50:11.376Z,990
2018-02-01T12:51:13.804Z,990.1
2018-02-01T12:52:16.510Z,990
2018-02-01T12:53:18.951Z,990.1
2018-02-01T12:54:21.363Z,990
2018-02-01T12:55:24.075Z,990
2018-02-01T12:56:26.512Z,990.1
2018-02-01T12:57:28.932Z,990.1
2018-02-01T12:58:31.361Z,990
2018-02-01T12:59:33.790Z,990.1
2018-02-01T13:00:36.212Z,990
2018-02-01T13:01:38.642Z,990.1
2018-02-01T13:02:41.067Z,990
2018-02-01T13:03:43.483Z,990.1
2018-02-01T13:04:45.911Z,990.2
2018-02-01T13:05:48.337Z,990.1
2018-02-01T13:06:50.775Z,990.1
2018-02-01T13:07:53.579Z,990.1
2018-02-01T13:08:56.284Z,990.1
2018-02-01T13:09:58.716Z,990.1
2018-02-01T13:11:01.152Z,990.1
2018-02-01T13:12:03.572Z,990
2018-02-01T13:13:06.005Z,990.1
2018-02-01T13:14:08.422Z,990
2018-02-01T13:15:10.850Z,990
2018-02-01T13:16:13.273Z,990.1
2018-02-01T13:17:15.696Z,990
2018-02-01T13:18:18.132Z,990.1
2018-02-01T13:19:20.553Z,990.1
2018-02-01T13:20:22.970Z,990
2018-02-01T13:21:25.406Z,990
2018-02-01T13:22:27.835Z,990.1
2018-02-01T13:23:30.266Z,990
2018-02-01T13:24:32.968Z,990
2018-02-01T13:25:35.390Z,990
2018-02-01T13:26:38.113Z,990
2018-02-01T13:27:40.554Z,990
2018-02-01T13:28:42.976Z,990
2018-02-01T13:29:45.396Z,990